createdAt,value
2018-07-09T11:35:40.978Z,127
2018-07-09T11:39:23.792Z,22464.76
2018-07-09T11:42:23.769Z,22464.76
2018-07-09T11:45:23.848Z,22464.76
2018-07-09T11:48:23.862Z,22464.76
2018-07-09T11:51:24.138Z,22464.76
2018-07-09T11:54:24.044Z,22464.76
2018-07-09T11:57:24.113Z,22464.76
2018-07-09T12:00:24.017Z,22464.76
2018-07-09T12:03:24.176Z,22464.76
2018-07-09T12:06:24.236Z,22464.76
2018-07-09T12:09:24.341Z,22464.76
2018-07-09T12:12:24.428Z,22464.76
2018-07-09T12:15:24.824Z,22464.76
2018-07-09T12:18:24.406Z,22464.76
2018-07-09T12:21:24.562Z,22464.76
2018-07-09T12:24:24.503Z,22464.76
2018-07-09T12:27:24.598Z,22464.76
2018-07-09T12:30:24.790Z,22464.76
2018-07-09T12:33:24.851Z,22464.76
2018-07-09T12:36:24.933Z,22464.76
2018-07-09T12:39:24.951Z,22464.76
2018-07-09T12:42:24.869Z,22464.76
2018-07-09T12:45:25.062Z,22464.76
2018-07-09T12:48:24.916Z,22464.76
2018-07-09T12:51:25.130Z,22464.76
2018-07-09T12:54:25.110Z,22464.76
2018-07-09T12:57:25.297Z,22464.76
2018-07-09T13:00:25.211Z,22464.76
2018-07-09T13:03:25.163Z,22464.76
2018-07-09T13:06:25.272Z,22464.76
2018-07-09T13:09:25.329Z,22464.76
2018-07-09T13:12:25.262Z,22464.76
2018-07-09T13:15:25.332Z,22464.76
2018-07-09T13:18:25.402Z,22464.76
2018-07-09T13:21:25.404Z,22464.76
2018-07-09T13:24:25.463Z,22464.76
2018-07-09T13:27:25.549Z,22464.76
2018-07-09T13:30:25.644Z,22464.76
2018-07-09T13:33:25.575Z,22464.76
2018-07-09T13:36:25.662Z,22464.76
2018-07-09T13:39:25.605Z,22464.76
2018-07-09T13:42:25.709Z,22464.76
2018-07-09T13:45:25.817Z,22464.76
2018-07-09T13:48:25.811Z,22464.76
2018-07-09T13:51:25.785Z,22464.76
2018-07-09T13:54:25.898Z,22464.76
2018-07-09T13:57:25.897Z,22464.76
2018-07-09T14:00:26.074Z,22464.76
2018-07-09T14:03:25.957Z,22464.76
2018-07-09T14:06:26.045Z,22464.76
2018-07-09T14:09:26.207Z,22464.76
2018-07-09T14:12:26.087Z,22464.76
2018-07-09T14:15:26.289Z,22464.76
2018-07-09T14:18:26.213Z,22464.76
2018-07-09T14:21:26.487Z,22464.76
2018-07-09T14:24:26.332Z,22464.76
2018-07-09T14:27:26.473Z,22464.76
2018-07-09T14:30:26.501Z,22464.76
2018-07-09T14:33:26.528Z,22464.76
2018-07-09T14:36:26.496Z,22464.76
2018-07-09T14:39:26.548Z,22464.76
2018-07-09T14:42:26.692Z,22464.76
2018-07-09T14:45:26.507Z,22464.76
2018-07-09T14:48:26.590Z,22464.76
2018-07-09T14:51:26.606Z,22464.76
2018-07-09T14:54:26.667Z,22464.76
2018-07-09T14:57:26.753Z,22464.76
2018-07-09T15:00:26.619Z,22464.76
2018-07-09T15:03:26.860Z,22464.76
2018-07-09T15:06:26.788Z,22464.76
2018-07-09T15:09:26.881Z,22464.76
2018-07-09T15:12:26.913Z,22464.76
2018-07-09T15:15:26.973Z,22464.76
2018-07-09T15:18:27.100Z,22464.76
2018-07-09T15:21:27.010Z,22464.76
2018-07-09T15:24:27.336Z,22464.76
2018-07-09T15:27:27.109Z,22464.76
2018-07-09T15:30:27.314Z,22464.76
2018-07-09T15:33:27.322Z,22464.76
2018-07-09T15:36:27.116Z,22464.76
2018-07-09T15:39:27.096Z,22464.76
2018-07-09T15:42:27.128Z,22464.76
2018-07-09T15:45:27.270Z,22464.76
2018-07-09T15:48:27.307Z,22464.76
2018-07-09T15:51:27.389Z,22464.76
2018-07-09T15:54:27.414Z,22464.76
2018-07-09T15:57:27.519Z,22464.76
2018-07-09T16:00:27.301Z,22464.76
2018-07-09T16:03:27.454Z,22464.76
2018-07-09T16:06:27.498Z,22464.76
2018-07-09T16:09:27.608Z,22464.76
2018-07-09T16:12:27.577Z,22464.76
2018-07-09T16:15:28.010Z,22464.76
2018-07-09T16:18:27.669Z,22464.76
2018-07-09T16:21:27.670Z,22464.76
2018-07-09T16:24:27.536Z,22464.76
2018-07-09T16:27:27.558Z,22464.76
2018-07-09T16:30:27.529Z,22464.76
2018-07-09T16:33:27.615Z,22464.76
2018-07-09T16:36:27.738Z,22464.76
2018-07-09T16:39:28.311Z,22464.76
2018-07-09T16:42:27.960Z,22464.76
2018-07-09T16:45:27.873Z,22464.76
2018-07-09T16:48:28.031Z,22464.76
2018-07-09T16:51:27.896Z,22464.76
2018-07-09T16:54:27.841Z,22464.76
2018-07-09T16:57:27.912Z,22464.76
2018-07-09T17:00:27.910Z,22464.76
2018-07-09T17:03:27.922Z,22464.76
2018-07-09T17:06:28.026Z,22464.76
2018-07-09T17:09:27.956Z,22464.76
2018-07-09T17:12:28.068Z,22464.76
2018-07-09T17:15:28.076Z,22464.76
2018-07-09T17:21:28.102Z,22464.76
2018-07-09T17:24:28.111Z,22464.76
2018-07-09T17:27:28.156Z,22464.76
2018-07-09T17:30:28.286Z,22464.76
2018-07-09T17:33:28.136Z,22464.76
2018-07-09T17:36:28.205Z,22464.76
2018-07-09T17:39:28.200Z,22464.76
2018-07-09T17:42:28.193Z,22464.76
2018-07-09T17:45:28.348Z,22464.76
2018-07-09T17:48:28.205Z,22464.76
2018-07-09T17:51:28.501Z,22464.76
2018-07-09T17:54:28.257Z,22464.76
2018-07-09T17:57:28.275Z,22464.76
2018-07-09T18:00:28.395Z,22464.76
2018-07-09T18:03:28.653Z,1457.44
2018-07-09T18:30:28.443Z,971.56
2018-07-09T18:33:28.445Z,933.6
2018-07-09T18:36:28.554Z,943.28
2018-07-09T18:39:28.616Z,916.75
2018-07-09T18:42:28.480Z,872.39
2018-07-09T18:45:28.675Z,866.16
2018-07-09T18:48:29.039Z,823.65
2018-07-09T18:51:28.828Z,789.59
2018-07-09T18:54:28.617Z,741.42
2018-07-09T19:12:28.605Z,283.16
2018-07-09T19:15:28.741Z,219.05
2018-07-09T19:18:28.857Z,174.71
2018-07-09T19:21:29.018Z,140.54
2018-07-09T19:24:28.754Z,117.65
2018-07-09T19:27:28.760Z,97.31
2018-07-09T19:30:28.813Z,78.51
2018-07-09T19:33:28.777Z,61.65
2018-07-09T19:36:28.797Z,47.29
2018-07-09T19:39:28.803Z,32.14
2018-07-09T19:42:29.170Z,21.55
2018-07-09T19:45:28.870Z,15.17
2018-07-09T19:48:28.980Z,10.63
2018-07-09T19:51:28.869Z,7.26
2018-07-09T19:54:28.995Z,4.88
2018-07-09T19:57:28.924Z,3.34
2018-07-09T20:00:28.936Z,2.34
2018-07-09T20:03:28.968Z,1.52
2018-07-09T20:06:29.059Z,1.05
2018-07-09T20:12:28.988Z,0.35
2018-07-09T20:15:28.962Z,0.35
2018-07-09T20:18:28.986Z,0.16
2018-07-09T20:21:28.996Z,0.09
2018-07-09T20:24:28.977Z,0.12
2018-07-09T20:27:29.035Z,0.07
2018-07-09T20:30:29.125Z,0.01
2018-07-09T20:36:29.043Z,0.05
2018-07-09T20:39:29.048Z,0.05
2018-07-09T20:42:29.518Z,0.05
2018-07-09T20:45:29.116Z,0.05
2018-07-09T20:48:29.318Z,0.05
2018-07-09T20:51:29.127Z,0.05
2018-07-09T20:54:29.117Z,0.05
2018-07-09T20:57:29.568Z,0.05
2018-07-09T21:00:29.126Z,22464.76
2018-07-09T21:03:29.213Z,22464.76
2018-07-09T21:06:29.181Z,0.05
2018-07-09T21:09:29.337Z,22464.76
2018-07-09T21:12:29.239Z,0.05
2018-07-09T21:15:29.318Z,0.05
2018-07-09T21:18:29.184Z,0.05
2018-07-09T21:21:29.163Z,0.05
2018-07-09T21:24:29.213Z,0.05
2018-07-09T21:27:29.361Z,0.05
2018-07-09T21:30:29.198Z,0.05
2018-07-09T21:33:29.267Z,0.05
2018-07-09T21:36:29.323Z,22464.76
2018-07-09T21:39:29.276Z,0.05
2018-07-09T21:42:29.468Z,22464.76
2018-07-09T21:45:29.335Z,22464.76
2018-07-09T21:48:29.776Z,0.05
2018-07-09T21:51:29.382Z,0.05
2018-07-09T21:54:29.397Z,0.05
2018-07-09T21:57:29.342Z,0.05
